Time;durP1;ratioP1;P1;durP2;ratioP2;P2;SDS_P1;SDS_P2;PMS_P1;PMS_P2;Temp;Humidity;BMP_temperature;BMP_pressure;BME280_temperature;BME280_humidity;BME280_pressure;Samples;Min_cycle;Max_cycle;Signal;HPM_P1;HPM_P2
2022/08/07 03:28:59;;;;;;;;;;;;;;;15.04;52.72;102035.84;5043541;28;19930;-78
2022/08/07 03:31:25;;;;;;;;;;;;;;;15.03;52.82;102033.28;5056339;28;19924;-78
2022/08/07 03:33:58;;;;;;;;;;;;;;;14.96;52.82;102029.03;5069350;28;19924;-78
2022/08/07 03:36:25;;;;;;;;;;;;;;;14.91;52.91;102028.28;5076487;28;19924;-78
2022/08/07 03:38:52;;;;;;;;;;;;;;;14.97;52.89;102034.28;5073163;28;19921;-78
2022/08/07 03:41:17;;;;;;;;;;;;;;;14.95;53.16;102027.34;5070846;28;19937;-78
2022/08/07 03:43:43;;;;;;;;;;;;;;;14.89;52.34;102027.47;5058572;28;19967;-78
2022/08/07 03:46:10;;;;;;;;;;;;;;;14.97;52.67;102030.78;5058395;28;19920;-78
2022/08/07 03:48:36;;;;;;;;;;;;;;;14.93;52.66;102024.75;5058693;28;19928;-78
2022/08/07 03:51:02;;;;;;;;;;;;;;;14.90;52.68;102031.78;5065355;28;19913;-78
2022/08/07 03:53:27;;;;;;;;;;;;;;;14.81;52.47;102031.06;5060912;28;19927;-78
2022/08/07 03:55:54;;;;;;;;;;;;;;;14.76;52.88;102027.69;5071949;28;19917;-78
2022/08/07 03:58:20;;;;;;;;;;;;;;;14.84;52.64;102025.78;5062100;28;19921;-78
2022/08/07 04:00:47;;;;;;;;;;;;;;;14.79;52.70;102030.25;5061235;28;20293;-78
2022/08/07 04:03:12;;;;;;;;;;;;;;;14.75;53.35;102030.31;5054814;28;19916;-78
2022/08/07 04:05:38;;;;;;;;;;;;;;;14.74;53.17;102026.81;5059690;28;19923;-78
2022/08/07 04:08:03;;;;;;;;;;;;;;;14.73;52.85;102019.84;5058479;28;19920;-78
2022/08/07 04:10:29;;;;;;;;;;;;;;;14.67;53.00;102024.34;5065095;28;19924;-78
2022/08/07 04:12:55;;;;;;;;;;;;;;;14.70;53.45;102026.91;5062438;28;20392;-78
2022/08/07 04:15:21;;;;;;;;;;;;;;;14.77;52.93;102026.78;5074973;28;20028;-78
2022/08/07 04:17:46;;;;;;;;;;;;;;;14.69;53.66;102020.78;5060888;28;20404;-78
2022/08/07 04:20:12;;;;;;;;;;;;;;;14.76;53.59;102026.81;5068819;28;19932;-78
2022/08/07 04:22:41;;;;;;;;;;;;;;;14.81;53.66;102031.06;5056466;28;19929;-78
2022/08/07 04:25:07;;;;;;;;;;;;;;;14.87;53.44;102035.31;5061709;28;19926;-78
2022/08/07 04:27:33;;;;;;;;;;;;;;;14.76;53.71;102038.16;5052589;28;20007;-78
2022/08/07 04:29:58;;;;;;;;;;;;;;;14.61;54.19;102045.38;5057548;28;19970;-78
2022/08/07 04:32:24;;;;;;;;;;;;;;;14.64;54.55;102045.31;5060332;28;19944;-78
2022/08/07 04:34:50;;;;;;;;;;;;;;;14.72;54.24;102039.06;5057324;28;20043;-78
2022/08/07 04:37:16;;;;;;;;;;;;;;;14.62;54.89;102040.09;5040319;28;20397;-78
2022/08/07 04:39:41;;;;;;;;;;;;;;;14.68;54.11;102026.06;5045063;28;20009;-78
2022/08/07 04:42:06;;;;;;;;;;;;;;;14.65;54.38;102032.19;5056739;28;19963;-78
2022/08/07 04:44:32;;;;;;;;;;;;;;;14.64;53.58;102037.47;5057729;28;20031;-78
2022/08/07 04:47:01;;;;;;;;;;;;;;;14.63;53.78;102043.56;5059604;28;20058;-78
2022/08/07 04:49:44;;;;;;;;;;;;;;;14.71;53.70;102034.69;5064841;28;19922;-78
2022/08/07 04:52:16;;;;;;;;;;;;;;;14.74;52.28;102042.53;5066121;28;20399;-78
2022/08/07 04:54:54;;;;;;;;;;;;;;;14.73;53.13;102043.41;5060205;28;20447;-78
2022/08/07 04:57:22;;;;;;;;;;;;;;;14.80;53.31;102052.00;5055750;28;20474;-78
2022/08/07 05:00:03;;;;;;;;;;;;;;;14.81;53.22;102062.47;5055356;28;19927;-78
2022/08/07 05:02:31;;;;;;;;;;;;;;;14.79;53.23;102069.47;5055620;28;19924;-78
2022/08/07 05:05:00;;;;;;;;;;;;;;;14.79;53.83;102068.63;5051863;28;19977;-78
2022/08/07 05:07:31;;;;;;;;;;;;;;;14.86;53.31;102067.59;5061144;28;19917;-78
2022/08/07 05:10:02;;;;;;;;;;;;;;;14.85;53.52;102063.28;5063705;28;20043;-78
2022/08/07 05:12:37;;;;;;;;;;;;;;;14.87;53.51;102058.88;5058572;28;19978;-78
2022/08/07 05:15:15;;;;;;;;;;;;;;;14.78;53.31;102061.66;5056874;28;19920;-78
2022/08/07 05:17:48;;;;;;;;;;;;;;;14.93;53.27;102066.59;5055028;28;19921;-78
2022/08/07 05:20:15;;;;;;;;;;;;;;;14.92;52.66;102069.25;5062159;28;19924;-78
2022/08/07 05:22:43;;;;;;;;;;;;;;;14.81;53.65;102065.06;5055487;28;20449;-78
2022/08/07 05:25:09;;;;;;;;;;;;;;;14.90;53.22;102066.66;5058469;28;19956;-78
2022/08/07 05:27:36;;;;;;;;;;;;;;;14.97;54.21;102078.75;5057882;28;20383;-78
2022/08/07 05:30:03;;;;;;;;;;;;;;;15.02;53.48;102074.28;5062172;28;19924;-78
2022/08/07 05:32:28;;;;;;;;;;;;;;;14.97;54.47;102070.03;5053126;28;20338;-78
2022/08/07 05:34:55;;;;;;;;;;;;;;;15.02;54.21;102073.41;5042446;28;19917;-78
2022/08/07 05:37:20;;;;;;;;;;;;;;;15.14;54.50;102070.56;5059864;28;20361;-78
2022/08/07 05:39:46;;;;;;;;;;;;;;;15.15;54.76;102072.31;5061583;28;19929;-78
2022/08/07 05:42:12;;;;;;;;;;;;;;;15.09;54.91;102075.03;5044210;28;19943;-78
2022/08/07 05:44:39;;;;;;;;;;;;;;;15.11;55.04;102068.88;5058747;28;19945;-78
2022/08/07 05:47:05;;;;;;;;;;;;;;;15.15;54.87;102069.69;5057798;28;19944;-78
2022/08/07 05:49:31;;;;;;;;;;;;;;;15.20;54.65;102071.31;5066094;28;19959;-78
2022/08/07 05:51:56;;;;;;;;;;;;;;;15.16;54.93;102072.25;5059452;28;20395;-78
2022/08/07 05:54:21;;;;;;;;;;;;;;;15.21;54.83;102074.81;5058214;28;20389;-78
2022/08/07 05:56:47;;;;;;;;;;;;;;;15.24;55.20;102075.63;5065191;28;20426;-78
2022/08/07 05:59:15;;;;;;;;;;;;;;;15.31;54.78;102079.81;5068194;28;19920;-78
2022/08/07 06:01:44;;;;;;;;;;;;;;;15.26;55.36;102079.06;5039179;28;20328;-78
2022/08/07 06:04:13;;;;;;;;;;;;;;;15.37;55.24;102079.69;5050609;28;19916;-78
2022/08/07 06:06:39;;;;;;;;;;;;;;;15.32;55.36;102080.69;5061371;28;19916;-78
2022/08/07 06:09:04;;;;;;;;;;;;;;;15.35;55.66;102080.63;5056230;28;19971;-78
2022/08/07 06:11:30;;;;;;;;;;;;;;;15.46;55.40;102077.78;5066754;28;20720;-78
2022/08/07 06:13:55;;;;;;;;;;;;;;;15.39;55.03;102082.31;5057815;28;20008;-78
2022/08/07 06:16:22;;;;;;;;;;;;;;;15.47;55.13;102083.00;5063727;28;19924;-78
2022/08/07 06:18:47;;;;;;;;;;;;;;;15.40;55.19;102089.25;5065582;28;20364;-78
2022/08/07 06:21:13;;;;;;;;;;;;;;;15.44;54.86;102093.53;5073673;28;19952;-78
2022/08/07 06:23:41;;;;;;;;;;;;;;;15.37;54.97;102087.56;5068065;28;19920;-78
2022/08/07 06:26:10;;;;;;;;;;;;;;;15.35;55.19;102086.72;5053261;28;20515;-78
2022/08/07 06:28:46;;;;;;;;;;;;;;;15.38;55.39;102097.16;5059491;28;19932;-78
2022/08/07 06:31:11;;;;;;;;;;;;;;;15.45;55.76;102094.41;5053623;28;19986;-78
2022/08/07 06:33:37;;;;;;;;;;;;;;;15.55;55.13;102093.31;5057998;28;20377;-78
2022/08/07 06:36:02;;;;;;;;;;;;;;;15.56;55.06;102095.91;5041697;28;19920;-78
2022/08/07 06:38:30;;;;;;;;;;;;;;;15.53;55.19;102093.34;5065426;28;19920;-78
2022/08/07 06:40:56;;;;;;;;;;;;;;;15.57;55.18;102081.06;5065815;28;19921;-78
2022/08/07 06:43:23;;;;;;;;;;;;;;;15.55;54.69;102078.47;5054243;28;20083;-78
2022/08/07 06:45:49;;;;;;;;;;;;;;;15.64;54.60;102086.13;5078281;28;19917;-78
2022/08/07 06:48:15;;;;;;;;;;;;;;;15.58;54.52;102085.38;5062462;28;19928;-78
2022/08/07 06:50:41;;;;;;;;;;;;;;;15.65;54.99;102085.25;5069190;28;19920;-78
2022/08/07 06:53:07;;;;;;;;;;;;;;;15.66;53.67;102075.63;5059471;28;19917;-77
2022/08/07 06:55:34;;;;;;;;;;;;;;;15.72;54.51;102072.88;5071200;28;19920;-78
2022/08/07 06:58:01;;;;;;;;;;;;;;;15.79;53.43;102066.63;5067585;28;19924;-78
2022/08/07 07:00:29;;;;;;;;;;;;;;;15.72;52.65;102065.03;5030230;28;19967;-78
2022/08/07 07:02:55;;;;;;;;;;;;;;;15.84;52.12;102068.25;5074255;28;20410;-78
2022/08/07 07:05:24;;;;;;;;;;;;;;;15.87;52.40;102068.19;5044770;28;19921;-78
2022/08/07 07:07:49;;;;;;;;;;;;;;;15.85;52.05;102064.75;5068830;28;19970;-78
2022/08/07 07:10:16;;;;;;;;;;;;;;;15.90;52.91;102072.50;5067236;28;19952;-78
2022/08/07 07:12:42;;;;;;;;;;;;;;;15.99;52.61;102068.84;5062363;28;19924;-78
2022/08/07 07:15:07;;;;;;;;;;;;;;;16.00;52.18;102060.91;5067177;28;19920;-79
2022/08/07 07:17:43;;;;;;;;;;;;;;;15.97;52.39;102066.22;5061010;28;19916;-79
2022/08/07 07:20:14;;;;;;;;;;;;;;;15.99;51.02;102056.56;5057309;28;19917;-78
2022/08/07 07:22:40;;;;;;;;;;;;;;;15.96;51.77;102059.25;5072811;28;19920;-79
2022/08/07 07:25:06;;;;;;;;;;;;;;;16.03;50.91;102057.34;5066360;28;20404;-79
2022/08/07 07:27:35;;;;;;;;;;;;;;;16.06;52.06;102059.91;5063898;28;19917;-79
2022/08/07 07:30:02;;;;;;;;;;;;;;;16.07;51.02;102059.88;5064451;28;19920;-79
2022/08/07 07:32:28;;;;;;;;;;;;;;;16.09;50.85;102057.22;5059657;28;19923;-78
2022/08/07 07:34:56;;;;;;;;;;;;;;;16.16;51.36;102057.06;5061870;28;20280;-78
2022/08/07 07:37:23;;;;;;;;;;;;;;;16.17;51.27;102053.50;5066353;28;19927;-79
2022/08/07 07:39:51;;;;;;;;;;;;;;;16.20;51.26;102050.81;5069433;28;19932;-78
2022/08/07 07:42:17;;;;;;;;;;;;;;;16.22;50.56;102050.78;5064091;28;19924;-79
2022/08/07 07:44:43;;;;;;;;;;;;;;;16.24;49.93;102046.38;5060002;28;19924;-79
2022/08/07 07:47:08;;;;;;;;;;;;;;;16.28;49.59;102046.28;5060620;28;19913;-78
2022/08/07 07:49:35;;;;;;;;;;;;;;;16.32;48.92;102045.28;5072403;28;19917;-79
2022/08/07 07:52:01;;;;;;;;;;;;;;;16.33;48.49;102041.78;5069730;28;19921;-79
2022/08/07 07:54:27;;;;;;;;;;;;;;;16.35;48.26;102041.72;5061894;28;20369;-79
2022/08/07 07:56:53;;;;;;;;;;;;;;;16.39;47.91;102039.00;5057590;28;20046;-79
2022/08/07 07:59:18;;;;;;;;;;;;;;;16.44;48.88;102036.25;5057536;28;19921;-78
2022/08/07 08:01:45;;;;;;;;;;;;;;;16.46;48.86;102035.31;5062304;28;19968;-79
2022/08/07 08:04:14;;;;;;;;;;;;;;;16.41;48.66;102031.06;5066536;28;20312;-79
2022/08/07 08:06:41;;;;;;;;;;;;;;;16.51;48.12;102025.56;5065656;28;20027;-79
2022/08/07 08:09:07;;;;;;;;;;;;;;;16.63;47.51;102029.63;5062605;28;20347;-79
2022/08/07 08:11:33;;;;;;;;;;;;;;;16.58;47.58;102031.50;5052808;28;19925;-79
2022/08/07 08:13:58;;;;;;;;;;;;;;;16.58;46.31;102030.66;5051505;28;19916;-78
2022/08/07 08:16:31;;;;;;;;;;;;;;;16.60;46.33;102024.47;5058052;28;19924;-79
2022/08/07 08:18:58;;;;;;;;;;;;;;;16.63;46.51;102026.16;5054707;28;20000;-79
2022/08/07 08:27:04;;;;;;;;;;;;;;;16.70;45.65;102020.72;5062364;28;19970;-79
2022/08/07 08:29:32;;;;;;;;;;;;;;;16.78;47.02;102017.91;5049179;28;19928;-79
2022/08/07 08:31:59;;;;;;;;;;;;;;;16.76;47.19;102015.31;5059215;28;19966;-78
2022/08/07 08:34:25;;;;;;;;;;;;;;;16.76;46.49;102017.94;5060163;28;20395;-79
2022/08/07 08:36:51;;;;;;;;;;;;;;;16.74;46.82;102013.63;5056815;28;20308;-79
2022/08/07 08:39:17;;;;;;;;;;;;;;;16.77;46.79;102017.03;5058258;28;20529;-79
2022/08/07 08:41:48;;;;;;;;;;;;;;;16.81;46.39;102015.22;5056656;28;19931;-79
2022/08/07 08:44:16;;;;;;;;;;;;;;;16.80;46.30;102006.47;5060488;28;19944;-78
2022/08/07 08:46:43;;;;;;;;;;;;;;;16.81;46.50;101999.47;5058408;28;19916;-79
2022/08/07 08:49:08;;;;;;;;;;;;;;;16.87;46.67;102000.16;5057809;28;19928;-79
2022/08/07 08:51:36;;;;;;;;;;;;;;;16.91;46.16;101998.28;5059007;28;19928;-79
2022/08/07 08:54:27;;;;;;;;;;;;;;;16.95;46.46;101999.94;5060131;28;19921;-79
2022/08/07 08:56:53;;;;;;;;;;;;;;;16.98;45.74;101997.22;5056556;28;19924;-79
2022/08/07 08:59:44;;;;;;;;;;;;;;;17.01;45.25;101991.88;5052517;28;19920;-78
2022/08/07 09:02:09;;;;;;;;;;;;;;;16.99;45.89;101993.72;5054869;28;20274;-78
2022/08/07 09:04:38;;;;;;;;;;;;;;;17.01;45.87;101982.25;5055156;28;19924;-79
2022/08/07 09:07:29;;;;;;;;;;;;;;;17.05;45.33;101989.16;5063099;28;20050;-79
2022/08/07 09:09:57;;;;;;;;;;;;;;;17.08;46.12;101989.94;5060640;28;19932;-79
2022/08/07 09:12:35;;;;;;;;;;;;;;;17.11;46.66;101988.09;5071877;28;20416;-78
2022/08/07 09:15:03;;;;;;;;;;;;;;;17.16;45.78;101978.31;5064789;28;19931;-79
2022/08/07 09:17:28;;;;;;;;;;;;;;;17.16;46.35;101986.19;5066238;28;19954;-79
2022/08/07 09:20:16;;;;;;;;;;;;;;;17.19;45.86;101980.88;5069697;28;19951;-79
2022/08/07 09:22:51;;;;;;;;;;;;;;;17.19;45.33;101978.22;5063353;28;20358;-79
2022/08/07 09:25:33;;;;;;;;;;;;;;;17.22;45.41;101983.41;5051005;28;19966;-79
2022/08/07 09:28:03;;;;;;;;;;;;;;;17.28;45.29;101977.09;5066345;28;19928;-79
2022/08/07 09:30:52;;;;;;;;;;;;;;;17.26;45.94;101978.94;5060311;28;20007;-79
2022/08/07 09:33:34;;;;;;;;;;;;;;;17.28;46.44;101977.97;5022857;28;19970;-79
2022/08/07 09:36:10;;;;;;;;;;;;;;;17.29;45.38;101971.81;5058959;28;19955;-79
2022/08/07 09:38:36;;;;;;;;;;;;;;;17.33;44.42;101965.53;5054429;28;19921;-79
2022/08/07 09:41:14;;;;;;;;;;;;;;;17.32;44.79;101958.56;5059548;28;20323;-79
2022/08/07 09:44:18;;;;;;;;;;;;;;;17.35;44.96;101957.63;5060504;28;19912;-79
2022/08/07 09:47:02;;;;;;;;;;;;;;;17.40;44.39;101953.97;4992817;28;19921;-79
2022/08/07 09:49:52;;;;;;;;;;;;;;;17.41;44.12;101947.78;4984500;28;20016;-79
2022/08/07 09:52:25;;;;;;;;;;;;;;;17.46;44.22;101947.66;5044156;28;19920;-79
2022/08/07 09:54:54;;;;;;;;;;;;;;;17.50;42.54;101942.25;5068770;28;20003;-79
2022/08/07 09:57:49;;;;;;;;;;;;;;;17.57;42.49;101938.53;5063092;28;19920;-79
2022/08/07 10:00:16;;;;;;;;;;;;;;;17.52;43.15;101944.84;5045701;28;19967;-79
2022/08/07 10:02:51;;;;;;;;;;;;;;;17.53;43.16;101930.81;5059475;28;19950;-79
2022/08/07 10:05:35;;;;;;;;;;;;;;;17.55;42.83;101924.59;5062348;28;19935;-78
2022/08/07 10:08:07;;;;;;;;;;;;;;;17.62;41.27;101927.91;5056499;28;19920;-78
2022/08/07 10:10:55;;;;;;;;;;;;;;;17.68;41.26;101918.97;5052441;28;19916;-79
2022/08/07 10:13:32;;;;;;;;;;;;;;;17.62;42.05;101916.56;5050472;28;19916;-79
2022/08/07 10:16:03;;;;;;;;;;;;;;;17.64;43.01;101917.34;5067998;28;19972;-79
2022/08/07 10:18:47;;;;;;;;;;;;;;;17.66;41.55;101915.53;5071361;28;19931;-79
2022/08/07 10:21:31;;;;;;;;;;;;;;;17.66;41.91;101911.13;5070698;28;19931;-79
2022/08/07 10:24:17;;;;;;;;;;;;;;;17.69;40.77;101908.41;5064391;28;19936;-79
2022/08/07 10:27:01;;;;;;;;;;;;;;;17.66;43.16;101907.63;5066597;28;19946;-79
2022/08/07 10:29:29;;;;;;;;;;;;;;;17.63;42.88;101905.13;5063737;28;19974;-79
2022/08/07 10:32:13;;;;;;;;;;;;;;;17.77;40.11;101897.66;5072925;28;20288;-79
2022/08/07 10:34:47;;;;;;;;;;;;;;;17.75;43.45;101902.09;5081865;28;19927;-79
2022/08/07 10:37:22;;;;;;;;;;;;;;;17.84;41.44;101894.75;5055571;28;20131;-79
2022/08/07 10:40:07;;;;;;;;;;;;;;;17.82;40.33;101893.09;5056476;28;19929;-79
2022/08/07 10:42:45;;;;;;;;;;;;;;;17.78;40.68;101892.34;5062103;28;20377;-79
2022/08/07 10:45:10;;;;;;;;;;;;;;;17.83;40.78;101892.22;5051233;28;19925;-79
2022/08/07 10:47:45;;;;;;;;;;;;;;;17.85;40.84;101885.97;5044057;28;19929;-79
2022/08/07 10:50:30;;;;;;;;;;;;;;;17.96;39.33;101886.47;5061472;28;19995;-79
2022/08/07 10:53:21;;;;;;;;;;;;;;;17.90;39.40;101877.94;5053173;28;21004;-79
2022/08/07 10:56:10;;;;;;;;;;;;;;;17.86;46.43;101887.69;5051690;28;19961;-79
2022/08/07 10:58:52;;;;;;;;;;;;;;;17.85;42.74;101885.97;5053210;28;19924;-79
2022/08/07 11:01:28;;;;;;;;;;;;;;;17.97;39.44;101872.44;5064750;28;20376;-79
2022/08/07 11:04:04;;;;;;;;;;;;;;;17.96;39.33;101875.09;5070343;28;19943;-79
2022/08/07 11:06:52;;;;;;;;;;;;;;;17.89;43.33;101874.44;5059524;28;19921;-79
2022/08/07 11:09:22;;;;;;;;;;;;;;;17.87;40.65;101860.50;5066268;28;19978;-79
2022/08/07 11:12:07;;;;;;;;;;;;;;;17.94;40.11;101862.00;5057768;28;19925;-79
2022/08/07 11:14:36;;;;;;;;;;;;;;;17.97;40.81;101853.16;5042002;28;19921;-78
2022/08/07 11:17:07;;;;;;;;;;;;;;;17.92;40.54;101853.31;5061657;28;20014;-78
2022/08/07 11:19:36;;;;;;;;;;;;;;;18.06;41.82;101856.34;5064061;28;19924;-79
2022/08/07 11:22:07;;;;;;;;;;;;;;;18.01;42.72;101855.63;5061565;28;19967;-79
2022/08/07 11:24:39;;;;;;;;;;;;;;;18.10;48.32;101849.16;5057569;28;19927;-79
2022/08/07 11:27:19;;;;;;;;;;;;;;;18.06;42.36;101845.81;5060258;28;20019;-79
2022/08/07 11:29:45;;;;;;;;;;;;;;;17.97;55.29;101856.66;5063009;28;19920;-79
2022/08/07 11:32:15;;;;;;;;;;;;;;;18.02;42.03;101840.69;5071373;28;19918;-79
2022/08/07 11:34:49;;;;;;;;;;;;;;;18.06;40.63;101845.81;5070206;28;19923;-79
2022/08/07 11:37:14;;;;;;;;;;;;;;;18.03;40.78;101837.16;5073393;28;19916;-79
2022/08/07 11:39:59;;;;;;;;;;;;;;;18.39;38.13;101832.38;5067993;28;20308;-79
2022/08/07 11:42:36;;;;;;;;;;;;;;;18.31;37.12;101823.88;5067254;28;19917;-79
2022/08/07 11:45:11;;;;;;;;;;;;;;;18.30;37.37;101822.19;5069671;28;19920;-79
2022/08/07 11:47:54;;;;;;;;;;;;;;;18.08;44.34;101825.56;5073143;28;19924;-79
2022/08/07 11:50:23;;;;;;;;;;;;;;;18.13;40.86;101828.03;5056600;28;19920;-78
2022/08/07 11:52:57;;;;;;;;;;;;;;;18.13;39.77;101822.78;5060045;28;19917;-79
2022/08/07 11:55:22;;;;;;;;;;;;;;;18.07;45.22;101826.47;5059190;28;19931;-79
2022/08/07 11:57:51;;;;;;;;;;;;;;;18.33;39.90;101816.81;5060342;28;19921;-79
2022/08/07 12:00:19;;;;;;;;;;;;;;;18.11;40.52;101814.09;5057038;28;19932;-79
2022/08/07 12:02:59;;;;;;;;;;;;;;;18.26;39.87;101810.91;5061583;28;19963;-79
2022/08/07 12:05:24;;;;;;;;;;;;;;;18.48;38.59;101811.03;5062233;28;20467;-79
2022/08/07 12:07:59;;;;;;;;;;;;;;;18.58;37.86;101805.34;5050879;28;19923;-79
2022/08/07 12:10:30;;;;;;;;;;;;;;;18.81;37.43;101803.63;5060757;28;20449;-79
2022/08/07 12:13:17;;;;;;;;;;;;;;;18.69;37.26;101802.28;5050054;28;19974;-79
2022/08/07 12:15:46;;;;;;;;;;;;;;;18.74;37.11;101810.88;5064280;28;20396;-79
2022/08/07 12:18:18;;;;;;;;;;;;;;;18.58;38.66;101801.84;5058306;28;20033;-79
2022/08/07 12:20:47;;;;;;;;;;;;;;;18.38;42.23;101812.22;5065929;28;20384;-79
2022/08/07 12:23:27;;;;;;;;;;;;;;;18.48;38.79;101801.31;5056819;28;20500;-79
2022/08/07 12:25:55;;;;;;;;;;;;;;;18.43;39.44;101798.00;5064422;28;19932;-79
2022/08/07 12:28:33;;;;;;;;;;;;;;;18.30;39.68;101795.88;5060550;28;19935;-78
2022/08/07 12:31:02;;;;;;;;;;;;;;;18.51;38.63;101785.44;5049828;28;19928;-78
2022/08/07 12:33:30;;;;;;;;;;;;;;;18.48;39.33;101784.72;5065169;28;19949;-78
2022/08/07 12:35:56;;;;;;;;;;;;;;;18.53;38.28;101774.84;5066783;28;19928;-79
2022/08/07 12:38:23;;;;;;;;;;;;;;;18.54;38.39;101772.16;5043911;28;19982;-78
2022/08/07 12:40:51;;;;;;;;;;;;;;;18.87;37.06;101772.63;5059093;28;19990;-78
2022/08/07 12:43:20;;;;;;;;;;;;;;;18.64;53.79;101791.09;5057884;28;20412;-78
2022/08/07 12:45:51;;;;;;;;;;;;;;;18.91;37.76;101783.91;5057835;28;19995;-79
2022/08/07 12:48:28;;;;;;;;;;;;;;;18.85;38.17;101781.50;5051380;28;19992;-78
2022/08/07 12:51:11;;;;;;;;;;;;;;;18.79;39.87;101779.97;5059918;28;19960;-78
2022/08/07 12:53:37;;;;;;;;;;;;;;;19.02;37.33;101779.91;5058765;28;19928;-78
2022/08/07 12:56:08;;;;;;;;;;;;;;;18.72;38.92;101775.84;5060754;28;20300;-78
2022/08/07 12:58:41;;;;;;;;;;;;;;;18.75;38.54;101780.16;5057999;28;20377;-78
2022/08/07 13:01:12;;;;;;;;;;;;;;;18.64;38.43;101772.66;5057325;28;20377;-78
2022/08/07 13:03:43;;;;;;;;;;;;;;;18.50;40.38;101772.34;5057404;28;20407;-78
2022/08/07 13:06:27;;;;;;;;;;;;;;;18.54;40.88;101761.63;5059775;28;19924;-79
2022/08/07 13:08:55;;;;;;;;;;;;;;;18.42;50.94;101766.50;5058412;28;19967;-78
2022/08/07 13:11:33;;;;;;;;;;;;;;;18.39;46.15;101756.06;5054239;28;19920;-78
2022/08/07 13:13:58;;;;;;;;;;;;;;;18.83;39.24;101754.38;5059470;28;19917;-78
2022/08/07 13:16:40;;;;;;;;;;;;;;;19.08;37.90;101745.44;5055470;28;19951;-79
2022/08/07 13:19:15;;;;;;;;;;;;;;;19.25;37.29;101747.41;5059416;28;20331;-78
2022/08/07 13:21:48;;;;;;;;;;;;;;;19.47;36.61;101744.72;5062372;28;20023;-78
2022/08/07 13:24:23;;;;;;;;;;;;;;;19.37;36.06;101743.41;5055199;28;19925;-78
2022/08/07 13:26:59;;;;;;;;;;;;;;;19.35;36.89;101742.59;5056516;28;20008;-78
2022/08/07 13:29:24;;;;;;;;;;;;;;;19.37;36.96;101740.78;5053849;28;19920;-78
2022/08/07 13:31:58;;;;;;;;;;;;;;;19.18;37.44;101733.63;5053364;28;19970;-79
2022/08/07 13:34:43;;;;;;;;;;;;;;;18.77;44.36;101744.09;5054554;28;19924;-78
2022/08/07 13:37:11;;;;;;;;;;;;;;;19.23;37.38;101728.13;5056836;28;19925;-78
2022/08/07 13:39:47;;;;;;;;;;;;;;;19.08;38.73;101729.63;5056440;28;19920;-78
2022/08/07 13:42:13;;;;;;;;;;;;;;;19.23;37.53;101718.47;5054402;28;20332;-78
2022/08/07 13:44:40;;;;;;;;;;;;;;;19.36;37.40;101720.63;5056837;28;19942;-78
2022/08/07 13:47:08;;;;;;;;;;;;;;;19.59;37.16;101725.75;5057214;28;19962;-79
2022/08/07 13:49:37;;;;;;;;;;;;;;;19.68;39.14;101720.09;5056432;28;19929;-78
2022/08/07 13:52:04;;;;;;;;;;;;;;;19.82;42.19;101711.59;5044017;28;20388;-78
2022/08/07 13:54:30;;;;;;;;;;;;;;;20.10;37.01;101710.31;5041584;28;19931;-78
2022/08/07 13:56:58;;;;;;;;;;;;;;;20.71;34.98;101704.75;5060745;28;20000;-79
2022/08/07 13:59:25;;;;;;;;;;;;;;;21.06;33.97;101703.09;5063020;28;20069;-78
2022/08/07 14:01:52;;;;;;;;;;;;;;;21.08;33.88;101702.09;5045753;28;20342;-79
2022/08/07 14:04:17;;;;;;;;;;;;;;;20.80;47.16;101701.69;5059053;28;20010;-78
2022/08/07 14:06:44;;;;;;;;;;;;;;;20.18;43.34;101694.97;5054498;28;19982;-80
2022/08/07 14:09:15;;;;;;;;;;;;;;;19.72;52.21;101708.50;5060750;28;19920;-79
2022/08/07 14:11:45;;;;;;;;;;;;;;;19.76;39.94;101695.09;5063158;28;20289;-78
2022/08/07 14:14:13;;;;;;;;;;;;;;;20.15;35.79;101686.34;5058662;28;19951;-78
2022/08/07 14:16:40;;;;;;;;;;;;;;;20.13;35.34;101681.16;5061116;28;19931;-78
2022/08/07 14:19:13;;;;;;;;;;;;;;;20.16;36.05;101683.63;5056514;28;19927;-78
2022/08/07 14:21:44;;;;;;;;;;;;;;;19.68;51.82;101691.94;5064021;28;19924;-79
2022/08/07 14:24:18;;;;;;;;;;;;;;;19.57;41.00;101682.81;5057523;28;20373;-78
2022/08/07 14:26:48;;;;;;;;;;;;;;;20.04;36.11;101681.53;5060048;28;19931;-78
2022/08/07 14:29:16;;;;;;;;;;;;;;;19.83;36.97;101681.63;5058824;28;19940;-77
2022/08/07 14:31:43;;;;;;;;;;;;;;;20.06;35.34;101684.09;5060051;28;19968;-78
2022/08/07 14:34:10;;;;;;;;;;;;;;;19.74;36.77;101677.63;5058402;28;19971;-77
2022/08/07 14:36:36;;;;;;;;;;;;;;;19.56;37.86;101674.03;5056806;28;19920;-77
2022/08/07 14:39:02;;;;;;;;;;;;;;;19.37;44.23;101669.66;5057637;28;19926;-77
2022/08/07 14:41:31;;;;;;;;;;;;;;;19.69;36.87;101666.44;5059782;28;19932;-77
2022/08/07 14:43:57;;;;;;;;;;;;;;;19.72;36.11;101666.31;5042513;28;19958;-77
2022/08/07 14:46:23;;;;;;;;;;;;;;;19.67;37.01;101657.72;5061149;28;19968;-77
2022/08/07 14:48:50;;;;;;;;;;;;;;;20.00;36.00;101658.00;5055592;28;19924;-77
2022/08/07 14:51:21;;;;;;;;;;;;;;;20.16;36.24;101649.34;5058604;28;19968;-77
2022/08/07 14:53:48;;;;;;;;;;;;;;;19.97;35.86;101651.06;5061100;28;20304;-77
2022/08/07 14:56:15;;;;;;;;;;;;;;;20.26;34.53;101645.31;5061945;28;19917;-77
2022/08/07 14:58:49;;;;;;;;;;;;;;;20.05;35.87;101659.50;5058354;28;19920;-78
2022/08/07 15:01:16;;;;;;;;;;;;;;;20.44;34.09;101653.31;5056455;28;19924;-78
2022/08/07 15:03:42;;;;;;;;;;;;;;;20.60;33.08;101652.50;5056191;28;19928;-78
2022/08/07 15:06:07;;;;;;;;;;;;;;;20.46;35.46;101652.31;5061516;28;19920;-78
2022/08/07 15:08:35;;;;;;;;;;;;;;;20.73;33.40;101634.28;5054764;28;20546;-78
2022/08/07 15:11:03;;;;;;;;;;;;;;;20.52;33.43;101636.19;5061809;28;20005;-78
2022/08/07 15:13:29;;;;;;;;;;;;;;;21.00;32.29;101646.13;5061838;28;20352;-78
2022/08/07 15:16:03;;;;;;;;;;;;;;;21.12;32.24;101648.16;5057772;28;19921;-78
2022/08/07 15:18:33;;;;;;;;;;;;;;;21.16;32.19;101646.19;5058405;28;19936;-77
2022/08/07 15:21:01;;;;;;;;;;;;;;;20.82;33.51;101636.47;5059120;28;20019;-78
2022/08/07 15:23:31;;;;;;;;;;;;;;;20.96;34.22;101641.94;5038668;28;20566;-78
2022/08/07 15:25:57;;;;;;;;;;;;;;;20.76;35.98;101642.03;5047997;28;19919;-78
2022/08/07 15:28:25;;;;;;;;;;;;;;;21.33;32.66;101636.47;5038673;28;20040;-76
2022/08/07 15:30:53;;;;;;;;;;;;;;;21.59;32.23;101623.72;5059538;28;19920;-76
2022/08/07 15:33:20;;;;;;;;;;;;;;;21.48;31.90;101626.03;5064095;28;20373;-76
2022/08/07 15:35:51;;;;;;;;;;;;;;;21.25;33.58;101628.09;5061209;28;20466;-75
2022/08/07 15:38:24;;;;;;;;;;;;;;;21.57;31.52;101629.03;5059789;28;19920;-76
2022/08/07 15:40:50;;;;;;;;;;;;;;;21.47;32.04;101624.31;5060211;28;19920;-76
2022/08/07 15:43:16;;;;;;;;;;;;;;;21.38;35.64;101629.16;5060790;28;19928;-76
2022/08/07 15:45:42;;;;;;;;;;;;;;;21.09;36.39;101618.41;5062705;28;20003;-76
2022/08/07 15:48:13;;;;;;;;;;;;;;;21.01;33.29;101623.19;5058509;28;20027;-76
2022/08/07 15:50:40;;;;;;;;;;;;;;;21.29;32.93;101616.44;5060879;28;19924;-76
2022/08/07 15:53:13;;;;;;;;;;;;;;;21.23;32.51;101621.19;5065743;28;19920;-76
2022/08/07 15:55:41;;;;;;;;;;;;;;;21.01;32.91;101615.28;5066439;28;20437;-76
2022/08/07 15:58:06;;;;;;;;;;;;;;;21.14;32.45;101614.59;5062005;28;19925;-76
2022/08/07 16:00:35;;;;;;;;;;;;;;;21.10;32.81;101612.16;5061531;28;19939;-76
2022/08/07 16:03:08;;;;;;;;;;;;;;;20.91;32.42;101614.91;5062451;28;20063;-76
2022/08/07 16:05:35;;;;;;;;;;;;;;;21.17;32.54;101608.28;5064916;28;19978;-76
2022/08/07 16:08:11;;;;;;;;;;;;;;;21.07;32.53;101607.91;5061553;28;19951;-76
2022/08/07 16:10:37;;;;;;;;;;;;;;;20.82;34.67;101604.78;5056475;28;19920;-76
2022/08/07 16:13:02;;;;;;;;;;;;;;;21.02;32.93;101601.13;5064301;28;20011;-76
2022/08/07 16:15:31;;;;;;;;;;;;;;;20.98;32.66;101604.84;5054706;28;20020;-76
2022/08/07 16:18:02;;;;;;;;;;;;;;;20.94;32.90;101601.53;5063021;28;19927;-76
2022/08/07 16:20:40;;;;;;;;;;;;;;;20.83;33.50;101595.91;5065082;28;19925;-76
2022/08/07 16:23:08;;;;;;;;;;;;;;;20.98;33.02;101602.22;5064702;28;19974;-76
2022/08/07 16:25:52;;;;;;;;;;;;;;;20.87;33.05;101598.34;5061919;28;19928;-76